Flight Track Log - Related Links

Times and Time Zones

All times are in EDT time to prevent confusion due to time zone crossing. See the N137TK flight status page for this flight to view local times or setup timezone preferences in your user account.

Time Position Orientation Groundspeed Altitude Reporting Facility
EDT Latitude Longitude Course Direction KTS MPH feet Rate Location/Type
Mon 05:37:54 PM 32.3850 -80.6639 257° West 178 205 4,900  Level Jacksonville Center
Mon 05:38:54 PM 32.3672 -80.7208 250° West 173 199 7,200 2,100 Climbing Jacksonville Center
Mon 05:39:54 PM 32.3472 -80.7728 246° West 173 199 9,100 1,850 Climbing Jacksonville Center
Mon 05:40:54 PM 32.3314 -80.8322 253° West 178 205 10,900 1,600 Climbing Jacksonville Center
Mon 05:41:54 PM 32.3031 -80.8844 237° Southwest 190 219 12,300 1,400 Climbing Jacksonville Center
Mon 05:42:00 PM 32.2414 -81.1149 252° West  Level FlightAware Approximate
Mon 05:42:54 PM 32.2556 -80.9125 207° Southwest 206 237 13,700  Level Jacksonville Center
Mon 05:43:54 PM 32.1975 -80.9481 207° Southwest 217 250 15,400 1,500 Climbing Jacksonville Center
Mon 05:44:54 PM 32.1458 -80.9786 207° Southwest 217 250 16,700 1,200 Climbing Jacksonville Center
Mon 05:45:54 PM 32.0981 -81.0042 204° Southwest 217 250 17,800 1,200 Climbing Jacksonville Center
Mon 05:46:54 PM 32.0381 -81.0422 208° Southwest 217 250 19,100 1,200 Climbing Jacksonville Center
Mon 05:47:54 PM 31.9886 -81.0703 206° Southwest 223 257 20,200 1,100 Climbing Jacksonville Center
Mon 05:48:54 PM 31.9325 -81.1056 208° Southwest 223 257 21,300 1,200 Climbing Jacksonville Center
Mon 05:49:54 PM 31.8725 -81.1408 207° Southwest 223 257 22,600 1,200 Climbing Jacksonville Center
Mon 05:50:54 PM 31.8208 -81.1689 205° Southwest 217 250 23,700 1,100 Climbing Jacksonville Center
Mon 05:51:54 PM 31.7628 -81.2067 209° Southwest 217 250 24,800 1,050 Climbing Jacksonville Center
Mon 05:52:54 PM 31.7111 -81.2367 206° Southwest 217 250 25,800 600 Climbing Jacksonville Center
Mon 05:53:54 PM 31.6572 -81.2669 206° Southwest 231 266 26,000 100 Climbing Jacksonville Center
Mon 05:54:54 PM 31.5867 -81.3097 207° Southwest 254 292 26,000  Level Jacksonville Center
Mon 05:55:54 PM 31.5225 -81.3475 207° Southwest 283 326 26,000  Level Jacksonville Center
Mon 05:56:54 PM 31.4436 -81.3950 207° Southwest 283 326 26,000  Level Jacksonville Center
Mon 05:57:54 PM 31.3689 -81.4400 207° Southwest 294 338 26,000  Level Jacksonville Center
Mon 05:58:54 PM 31.2964 -81.4872 209° Southwest 307 353 26,000  Level Jacksonville Center
Mon 05:59:54 PM 31.2217 -81.5297 206° Southwest 307 353 26,000  Level Jacksonville Center
Mon 06:00:54 PM 31.1469 -81.5719 206° Southwest 298 343 26,000  Level Jacksonville Center
Mon 06:01:54 PM 31.0744 -81.6167 208° Southwest 298 343 26,000  Level Jacksonville Center
Mon 06:02:54 PM 30.9975 -81.6614 206° Southwest 303 349 26,000  Level Jacksonville Center
Mon 06:03:54 PM 30.9250 -81.7036 207° Southwest 303 349 26,000  Level Jacksonville Center
Mon 06:04:54 PM 30.8503 -81.7481 207° Southwest 303 349 26,000  Level Jacksonville Center
Mon 06:05:54 PM 30.7753 -81.7925 207° Southwest 303 349 26,000  Level Jacksonville Center
Mon 06:06:54 PM 30.7028 -81.8344 206° Southwest 303 349 26,000  Level Jacksonville Center
Mon 06:07:54 PM 30.6278 -81.8786 207° Southwest 303 349 26,000  Level Jacksonville Center
Mon 06:08:54 PM 30.5531 -81.9228 207° Southwest 303 349 26,000  Level Jacksonville Center
Mon 06:09:54 PM 30.4781 -81.9622 204° Southwest 303 349 26,000  Level Jacksonville Center
Mon 06:10:54 PM 30.4011 -82.0039 205° Southwest 308 354 26,000  Level Jacksonville Center
Mon 06:11:54 PM 30.3264 -82.0503 208° Southwest 303 349 26,000  Level Jacksonville Center
Mon 06:12:54 PM 30.2514 -82.0942 207° Southwest 298 343 26,000  Level Jacksonville Center
Mon 06:13:54 PM 30.1722 -82.1261 199° South 305 351 26,000  Level Jacksonville Center
Mon 06:14:54 PM 30.0908 -82.1100 170° South 293 337 26,000  Level Jacksonville Center
Mon 06:15:54 PM 30.0156 -82.1008 174° South 298 343 26,000  Level Jacksonville Center
Mon 06:16:54 PM 29.9361 -82.0847 170° South 293 337 26,000  Level Jacksonville Center
Mon 06:17:54 PM 29.8547 -82.0689 170° South 293 337 26,000  Level Jacksonville Center
Mon 06:18:54 PM 29.7731 -82.0528 170° South 293 337 26,000  Level Jacksonville Center
Mon 06:19:54 PM 29.7019 -82.0342 167° South 293 337 26,000  Level Jacksonville Center
Mon 06:20:54 PM 29.6122 -82.0206 172° South 299 344 26,000  Level Jacksonville Center
Mon 06:21:54 PM 29.5306 -82.0022 169° South 294 338 26,000  Level Jacksonville Center
Mon 06:22:54 PM 29.4492 -81.9886 172° South 294 338 26,000  Level Jacksonville Center
Mon 06:23:54 PM 29.3675 -81.9728 170° South 294 338 26,000  Level Jacksonville Center
Mon 06:24:54 PM 29.2881 -81.9569 170° South 294 338 26,000 -200 Level Jacksonville Center
Mon 06:25:54 PM 29.1961 -81.9339 168° South 300 345 25,600 -450 Descending Jacksonville Center
Mon 06:26:54 PM 29.1125 -81.9181 171° South 305 351 25,100 -300 Descending Jacksonville Center
Mon 06:27:54 PM 29.0289 -81.9000 169° South 316 364 25,000 -38 Descending Jacksonville Center
Mon 06:29:30 PM 28.8972 -81.8772 171° South 290 334 25,000  Level Miami Center
Mon 06:30:30 PM 28.8247 -81.8619 170° South 290 334 25,000  Level Miami Center
Mon 06:31:30 PM 28.7417 -81.8489 172° South 295 339 25,000  Level Miami Center
Mon 06:32:30 PM 28.6608 -81.8308 169° South 295 339 25,000 -50 Level Miami Center
Mon 06:33:30 PM 28.5803 -81.8156 171° South 295 339 24,900  Descending Miami Center
Mon 06:34:30 PM 28.4994 -81.7956 168° South 295 339 25,000 50 Climbing Miami Center
Mon 06:35:30 PM 28.4208 -81.7778 169° South 295 339 25,000  Level Miami Center
Mon 06:36:30 PM 28.3317 -81.8186 202° Southwest 288 331 25,000  Level Miami Center
Mon 06:37:30 PM 28.2592 -81.8697 212° Southwest 302 348 25,000  Level Miami Center
Mon 06:38:30 PM 28.1844 -81.9158 209° Southwest 302 348 25,000  Level Miami Center
Mon 06:39:30 PM 28.1119 -81.9644 211° Southwest 313 360 25,000 -200 Level Miami Center
Mon 06:40:30 PM 28.0350 -82.0103 208° Southwest 313 360 24,600 -500 Descending Miami Center
Mon 06:41:30 PM 27.9581 -82.0608 210° Southwest 318 366 24,000 -300 Descending Miami Center
Mon 06:42:30 PM 27.8814 -82.1067 208° Southwest 318 366 24,000  Level Miami Center
Mon 06:43:30 PM 27.8044 -82.1547 209° Southwest 318 366 24,000  Level Miami Center
Mon 06:44:30 PM 27.7383 -82.1983 210° Southwest 313 360 24,000  Level Miami Center
Mon 06:45:30 PM 27.6550 -82.2461 207° Southwest 313 360 24,000  Level Miami Center
Mon 06:46:30 PM 27.5844 -82.2942 211° Southwest 313 360 24,000  Level Miami Center
Mon 06:47:30 PM 27.5075 -82.3397 208° Southwest 318 366 24,000 -200 Level Miami Center
Mon 06:48:30 PM 27.4369 -82.3831 209° Southwest 313 360 23,600 -750 Descending Miami Center
Mon 06:49:30 PM 27.3558 -82.4331 209° Southwest 318 366 22,500 -1,100 Descending Miami Center
Mon 06:50:30 PM 27.2661 -82.4894 209° Southwest 325 374 21,400 -1,000 Descending Miami Center
Mon 06:51:30 PM 27.1889 -82.5417 211° Southwest 334 384 20,500 -700 Descending Miami Center
Mon 06:52:30 PM 27.1033 -82.5911 207° Southwest 339 390 20,000 -750 Descending Miami Center
Mon 06:53:30 PM 27.0244 -82.6383 208° Southwest 339 390 19,000 -1,150 Descending Miami Center
Mon 06:54:30 PM 26.9381 -82.6575 191° South 328 377 17,700 -1,350 Descending Miami Center
Mon 06:55:30 PM 26.8422 -82.6550 179° South 327 376 16,300 -1,400 Descending Miami Center
Mon 06:56:30 PM 26.7525 -82.6506 177° South 327 376 14,900 -1,350 Descending Miami Center
Mon 06:57:30 PM 26.6672 -82.6464 177° South 327 376 13,600 -1,150 Descending Miami Center
Mon 06:58:30 PM 26.5817 -82.6422 178° South 317 365 12,600 -950 Descending Miami Center
Mon 06:59:30 PM 26.5036 -82.6128 161° South 307 353 11,700 -950 Descending Miami Center
Mon 07:00:30 PM 26.4428 -82.5658 145° Southeast 278 320 10,700 -950 Descending Miami Center
Mon 07:01:30 PM 26.4100 -82.4947 117° Southeast 262 302 9,800 -950 Descending Miami Center
Mon 07:02:30 PM 26.3775 -82.4189 116° Southeast 276 318 8,800 -1,000 Descending Miami Center
Mon 07:03:30 PM 26.3450 -82.3433 116° Southeast 271 312 7,800 -900 Descending Miami Center
Mon 07:04:30 PM 26.3164 -82.2678 113° Southeast 266 306 7,000 -850 Descending Miami Center
Mon 07:05:30 PM 26.2878 -82.1947 114° Southeast 261 300 6,100 -1,050 Descending Miami Center
Mon 07:06:30 PM 26.2553 -82.1169 115° Southeast 256 295 4,900 -1,200 Descending Miami Center
Mon 07:08:00 PM 26.1709 -82.0376 138° Southeast  Level FlightAware Approximate
Mon 07:15:00 PM 26.1524 -81.7756 66° East  Level Estimated
Mon 07:16:00 PM 26.1524 -81.7756 66° East  Level Estimated
Mon 07:17:00 PM 26.1524 -81.7756 66° East  Level Estimated
Mon 07:18:00 PM 26.1524 -81.7756 66° East  Level Estimated
Mon 07:19:00 PM 26.1524 -81.7756 66° East  Level Estimated

Login

Don't have an account? Register now (free) for customized features, flight alerts, and more!